Time;durP1;ratioP1;P1;durP2;ratioP2;P2;SDS_P1;SDS_P2;PMS_P1;PMS_P2;Temp;Humidity;BMP_temperature;BMP_pressure;BME280_temperature;BME280_humidity;BME280_pressure;Samples;Min_cycle;Max_cycle;Signal;HPM_P1;HPM_P2
2023/02/25 00:02:13;;;;;;;3.20;1.38;;;;;;;8.27;100.00;94991.88;5101687;27;20082;-60
2023/02/25 00:04:42;;;;;;;4.28;1.83;;;;;;;8.11;100.00;94999.75;5092767;27;20063;-61
2023/02/25 00:07:10;;;;;;;3.85;2.05;;;;;;;7.89;100.00;94999.44;5099858;27;20475;-60
2023/02/25 00:09:40;;;;;;;4.00;2.20;;;;;;;8.11;100.00;94987.44;5094827;27;20075;-60
2023/02/25 00:12:09;;;;;;;3.20;1.80;;;;;;;8.36;100.00;94976.91;5096328;27;20070;-60
2023/02/25 00:14:37;;;;;;;2.97;1.38;;;;;;;8.21;100.00;94982.03;5101007;27;20075;-60
2023/02/25 00:17:05;;;;;;;6.68;2.22;;;;;;;8.44;100.00;94969.88;5111405;27;20059;-60
2023/02/25 00:19:34;;;;;;;3.08;1.52;;;;;;;8.46;100.00;94978.41;5091128;28;20071;-59
2023/02/25 00:22:02;;;;;;;4.80;1.38;;;;;;;8.55;100.00;94979.19;5097723;27;20087;-59
2023/02/25 00:24:30;;;;;;;4.75;1.98;;;;;;;8.29;100.00;94984.63;5094383;28;20094;-59
2023/02/25 00:27:00;;;;;;;2.40;1.50;;;;;;;7.93;100.00;94995.50;5096164;27;20072;-59
2023/02/25 00:29:28;;;;;;;2.83;1.60;;;;;;;8.30;100.00;94995.00;5097522;27;20056;-59
2023/02/25 00:31:57;;;;;;;2.53;1.42;;;;;;;8.07;100.00;94986.16;5098995;27;20067;-59
2023/02/25 00:34:26;;;;;;;4.30;1.92;;;;;;;8.09;100.00;94992.06;5091580;27;20074;-59
2023/02/25 00:36:55;;;;;;;6.15;2.42;;;;;;;7.91;100.00;94996.66;5095473;27;20109;-58
2023/02/25 00:39:35;;;;;;;2.92;1.70;;;;;;;7.59;100.00;95006.97;5101654;27;20447;-58
2023/02/25 00:42:05;;;;;;;11.60;3.20;;;;;;;7.21;100.00;95005.75;5099419;27;20538;-56
2023/02/25 00:44:33;;;;;;;4.47;1.97;;;;;;;7.69;100.00;95022.56;5096080;28;20079;-58
2023/02/25 00:47:01;;;;;;;4.07;1.98;;;;;;;7.40;100.00;95028.25;5094715;28;21071;-58
2023/02/25 00:49:30;;;;;;;2.90;1.83;;;;;;;7.50;100.00;95028.94;5104568;27;20055;-59
2023/02/25 00:52:00;;;;;;;7.50;2.47;;;;;;;7.39;100.00;95021.34;5095548;28;20158;-58
2023/02/25 00:54:29;;;;;;;5.90;2.10;;;;;;;7.33;100.00;95011.53;5093188;28;20075;-60
2023/02/25 00:56:58;;;;;;;5.05;2.33;;;;;;;7.35;100.00;95020.03;5100978;27;20515;-57
2023/02/25 00:59:27;;;;;;;5.32;3.00;;;;;;;7.12;100.00;95015.41;5095587;28;20071;-62
2023/02/25 01:01:56;;;;;;;5.77;2.20;;;;;;;7.42;100.00;95020.22;5097521;28;20500;-58
2023/02/25 01:04:24;;;;;;;3.88;2.17;;;;;;;7.76;100.00;95013.06;5099205;28;20071;-58
2023/02/25 01:06:53;;;;;;;4.40;2.05;;;;;;;7.63;100.00;95017.94;5099579;28;20055;-60
2023/02/25 01:09:22;;;;;;;8.05;3.17;;;;;;;7.61;100.00;95017.31;5096103;28;20071;-59
2023/02/25 01:11:50;;;;;;;4.45;2.42;;;;;;;8.02;100.00;95009.47;5101619;28;20075;-57
2023/02/25 01:14:21;;;;;;;6.20;3.95;;;;;;;7.80;100.00;95021.41;5093546;28;20072;-58
2023/02/25 01:16:51;;;;;;;8.90;3.65;;;;;;;8.23;100.00;95019.47;5098836;28;20627;-59
2023/02/25 01:19:22;;;;;;;6.75;3.50;;;;;;;8.02;100.00;95012.09;5095429;28;20458;-58
2023/02/25 01:21:52;;;;;;;6.53;3.50;;;;;;;7.72;100.00;95019.59;5103059;28;20059;-58
2023/02/25 01:24:22;;;;;;;7.68;4.10;;;;;;;7.87;100.00;95034.72;5094085;28;20121;-58
2023/02/25 01:26:52;;;;;;;;;;;;;;;7.93;100.00;95039.31;5097328;28;20079;-57
2023/02/25 01:29:22;;;;;;;7.47;3.20;;;;;;;8.32;100.00;95032.41;5092767;28;20395;-58
2023/02/25 01:31:54;;;;;;;8.27;3.55;;;;;;;7.96;100.00;95028.50;5092815;28;20064;-58
2023/02/25 01:34:22;;;;;;;8.80;4.30;;;;;;;7.60;100.00;95039.25;5095788;28;20063;-59
2023/02/25 01:36:51;;;;;;;9.40;4.60;;;;;;;7.94;100.00;95038.31;5101928;27;20088;-59
2023/02/25 01:39:21;;;;;;;3.95;2.33;;;;;;;7.84;100.00;95034.06;5102684;27;20071;-60
2023/02/25 01:41:51;;;;;;;6.53;3.17;;;;;;;7.57;100.00;95043.03;5096885;28;20084;-58
2023/02/25 01:44:21;;;;;;;8.77;3.50;;;;;;;7.58;100.00;95036.81;5094893;27;20067;-58
2023/02/25 01:46:51;;;;;;;5.10;2.55;;;;;;;7.59;100.00;95027.13;5096702;27;20071;-55
2023/02/25 01:49:27;;;;;;;7.07;2.65;;;;;;;7.24;100.00;95041.31;5105994;27;20470;-60
2023/02/25 01:51:58;;;;;;;4.22;2.63;;;;;;;7.52;100.00;95036.63;5099195;27;20079;-57
2023/02/25 01:54:26;;;;;;;6.90;3.83;;;;;;;7.16;100.00;95034.25;5100556;27;20451;-58
2023/02/25 01:56:56;;;;;;;6.05;2.92;;;;;;;7.14;100.00;95049.28;5105597;27;20075;-58
2023/02/25 01:59:26;;;;;;;7.75;3.40;;;;;;;7.18;100.00;95037.50;5103508;27;20511;-58
2023/02/25 02:01:54;;;;;;;;;;;;;;;7.40;100.00;95046.59;5115072;27;20070;-59
2023/02/25 02:04:24;;;;;;;10.90;5.55;;;;;;;7.32;100.00;95036.91;5106569;27;19950;-56
2023/02/25 02:06:54;;;;;;;9.55;5.15;;;;;;;7.03;100.00;95029.44;5102815;27;20098;-54
2023/02/25 02:09:25;;;;;;;9.93;4.70;;;;;;;7.14;100.00;95042.25;5098002;28;20079;-58
2023/02/25 02:11:53;;;;;;;;;;;;;;;6.77;100.00;95039.13;5100462;28;20392;-60
2023/02/25 02:14:25;;;;;;;7.57;4.30;;;;;;;6.89;100.00;95051.00;5098473;27;20430;-59
2023/02/25 02:17:16;;;;;;;8.27;4.72;;;;;;;7.61;100.00;95040.91;5102137;28;20064;-58
2023/02/25 02:20:10;;;;;;;9.63;4.78;;;;;;;7.53;100.00;95039.06;5096351;28;20074;-57
2023/02/25 02:22:46;;;;;;;10.27;4.85;;;;;;;7.28;100.00;95043.44;5103515;27;20195;-60
2023/02/25 02:25:51;;;;;;;6.75;3.85;;;;;;;7.58;100.00;95043.84;5096155;27;20094;-56
2023/02/25 02:28:32;;;;;;;5.72;3.45;;;;;;;7.63;100.00;95040.75;5103931;27;20133;-55
2023/02/25 02:31:24;;;;;;;10.30;4.30;;;;;;;7.33;100.00;95043.00;5102682;27;20077;-58
2023/02/25 02:33:59;;;;;;;7.97;4.30;;;;;;;7.21;100.00;95041.63;5106208;27;20075;-55
2023/02/25 02:36:35;;;;;;;8.48;5.40;;;;;;;6.77;100.00;95034.72;5100395;27;20071;-55
2023/02/25 02:39:08;;;;;;;7.75;4.45;;;;;;;7.19;100.00;95035.72;5100374;27;20083;-59
2023/02/25 02:41:37;;;;;;;9.40;5.05;;;;;;;6.76;100.00;95037.50;5109966;27;20075;-57
2023/02/25 02:44:11;;;;;;;6.35;3.28;;;;;;;7.32;100.00;95039.50;5112391;27;20070;-56
2023/02/25 02:46:45;;;;;;;11.07;5.65;;;;;;;7.50;100.00;95033.34;5108028;27;20141;-55
2023/02/25 02:49:20;;;;;;;8.60;4.90;;;;;;;7.22;100.00;95035.38;5100152;27;20559;-58
2023/02/25 02:51:55;;;;;;;8.13;3.67;;;;;;;7.16;100.00;95049.97;5104911;27;20066;-59
2023/02/25 02:54:25;;;;;;;8.73;4.78;;;;;;;7.19;100.00;95054.91;5105115;27;20090;-59
2023/02/25 02:56:56;;;;;;;7.93;3.95;;;;;;;7.44;100.00;95050.53;5100722;27;20075;-59
2023/02/25 02:59:25;;;;;;;;;;;;;;;6.83;100.00;95047.19;5104406;27;20087;-57
2023/02/25 03:01:58;;;;;;;9.25;4.47;;;;;;;7.14;100.00;95046.69;5107658;27;19959;-59
2023/02/25 03:04:29;;;;;;;5.65;3.20;;;;;;;7.20;100.00;95050.47;5101371;27;20083;-56
2023/02/25 03:07:00;;;;;;;5.53;2.80;;;;;;;6.82;100.00;95050.00;5101845;28;20086;-57
2023/02/25 03:09:30;;;;;;;4.57;2.67;;;;;;;6.82;100.00;95048.19;5094636;27;20044;-56
2023/02/25 03:11:58;;;;;;;;;;;;;;;7.24;100.00;95043.94;5105317;27;20075;-58
2023/02/25 03:14:27;;;;;;;4.82;2.80;;;;;;;7.09;100.00;95048.97;5100292;27;19962;-57
2023/02/25 03:16:59;;;;;;;8.65;4.10;;;;;;;7.39;100.00;95044.94;5101135;27;20079;-60
2023/02/25 03:19:31;;;;;;;8.00;4.07;;;;;;;7.08;100.00;95048.13;5099688;27;20067;-58
2023/02/25 03:22:04;;;;;;;5.82;2.13;;;;;;;7.05;100.00;95055.47;5101517;27;20090;-59
2023/02/25 03:24:39;;;;;;;7.57;3.90;;;;;;;6.93;100.00;95051.50;5097336;27;20087;-55
2023/02/25 03:27:23;;;;;;;5.57;3.40;;;;;;;7.17;100.00;95056.03;5102216;27;20102;-57
2023/02/25 03:29:51;;;;;;;4.43;1.90;;;;;;;6.85;100.00;95060.97;5104524;27;20090;-58
2023/02/25 03:32:22;;;;;;;4.45;2.22;;;;;;;6.88;100.00;95060.66;5098339;27;20555;-57
2023/02/25 03:34:51;;;;;;;4.85;2.53;;;;;;;6.66;100.00;95053.31;5110141;27;20082;-57
2023/02/25 03:37:22;;;;;;;2.13;1.42;;;;;;;6.34;100.00;95070.47;5099526;27;20099;-57
2023/02/25 03:39:55;;;;;;;2.75;1.70;;;;;;;6.35;100.00;95071.28;5106385;27;20087;-55
2023/02/25 03:42:26;;;;;;;2.85;1.48;;;;;;;6.34;100.00;95075.72;5103140;27;20075;-55
2023/02/25 03:44:57;;;;;;;2.95;1.10;;;;;;;6.43;100.00;95073.97;5100623;27;20816;-59
2023/02/25 03:47:27;;;;;;;;;;;;;;;6.88;100.00;95086.88;5096859;27;20094;-58
2023/02/25 03:49:58;;;;;;;1.83;1.10;;;;;;;6.41;100.00;95102.13;5099390;27;19963;-58
2023/02/25 03:52:27;;;;;;;4.50;2.38;;;;;;;6.20;100.00;95094.59;5103502;27;20083;-55
2023/02/25 03:54:56;;;;;;;3.65;2.13;;;;;;;6.27;100.00;95090.38;5101296;27;20087;-58
2023/02/25 03:57:28;;;;;;;4.25;1.90;;;;;;;6.44;100.00;95098.38;5095974;27;20472;-58
2023/02/25 03:59:56;;;;;;;5.22;2.83;;;;;;;6.17;100.00;95106.19;5096862;27;20091;-59
2023/02/25 04:02:28;;;;;;;3.33;1.70;;;;;;;6.02;100.00;95109.47;5095845;27;20117;-56
2023/02/25 04:04:56;;;;;;;5.13;2.00;;;;;;;6.35;100.00;95103.53;5096806;27;20079;-57
2023/02/25 04:07:25;;;;;;;3.38;1.90;;;;;;;6.38;100.00;95102.41;5095387;27;20090;-55
2023/02/25 04:09:53;;;;;;;4.43;2.13;;;;;;;6.30;100.00;95116.25;5098374;27;20098;-58
2023/02/25 04:12:21;;;;;;;3.78;2.65;;;;;;;5.88;100.00;95119.47;5098813;27;20086;-58
2023/02/25 04:14:50;;;;;;;2.45;1.75;;;;;;;5.71;100.00;95131.56;5097171;27;20075;-57
2023/02/25 04:17:18;;;;;;;3.10;1.80;;;;;;;5.77;100.00;95124.06;5103142;27;20150;-56
2023/02/25 04:19:48;;;;;;;3.75;2.30;;;;;;;5.89;100.00;95128.94;5102842;27;20082;-54
2023/02/25 04:22:16;;;;;;;4.17;2.27;;;;;;;6.01;100.00;95118.28;5105266;28;20153;-59
2023/02/25 04:24:44;;;;;;;3.08;1.90;;;;;;;6.33;100.00;95125.59;5100448;27;20079;-59
2023/02/25 04:27:14;;;;;;;6.00;2.08;;;;;;;6.40;100.00;95116.16;5099344;27;20560;-55
2023/02/25 04:29:43;;;;;;;4.07;2.47;;;;;;;6.13;100.00;95117.09;5096331;28;20086;-60
2023/02/25 04:32:11;;;;;;;3.88;2.50;;;;;;;6.06;100.00;95113.44;5099997;27;20084;-57
2023/02/25 04:34:40;;;;;;;5.78;2.20;;;;;;;6.20;100.00;95114.72;5110340;27;20087;-53
2023/02/25 04:37:10;;;;;;;5.22;2.42;;;;;;;6.35;100.00;95113.19;5102330;27;20539;-55
2023/02/25 04:39:38;;;;;;;3.50;2.03;;;;;;;6.18;100.00;95118.28;5093056;28;20083;-59
2023/02/25 04:42:06;;;;;;;2.28;1.50;;;;;;;6.20;100.00;95118.16;5095755;27;20074;-60
2023/02/25 04:44:34;;;;;;;2.55;1.65;;;;;;;6.35;100.00;95118.41;5107113;27;20090;-58
2023/02/25 04:47:03;;;;;;;2.95;1.55;;;;;;;6.38;100.00;95137.25;5094646;28;20071;-58
2023/02/25 04:49:31;;;;;;;3.30;1.67;;;;;;;6.68;100.00;95121.28;5100080;28;20086;-58
2023/02/25 04:51:59;;;;;;;4.25;2.25;;;;;;;6.47;100.00;95114.59;5100290;28;20082;-57
2023/02/25 04:54:29;;;;;;;5.70;1.92;;;;;;;6.64;100.00;95126.00;5102056;28;20086;-59
2023/02/25 04:56:57;;;;;;;2.38;1.63;;;;;;;6.87;100.00;95123.69;5096672;27;20078;-57
2023/02/25 04:59:25;;;;;;;4.57;2.70;;;;;;;6.66;100.00;95130.09;5093467;28;20083;-56
2023/02/25 05:01:54;;;;;;;3.97;1.77;;;;;;;6.65;100.00;95123.22;5106426;28;20183;-60
2023/02/25 05:04:22;;;;;;;4.25;2.60;;;;;;;6.54;100.00;95127.91;5101830;28;20082;-57
2023/02/25 05:06:50;;;;;;;5.47;2.40;;;;;;;6.64;100.00;95131.22;5099866;28;20087;-55
2023/02/25 05:09:20;;;;;;;4.28;2.33;;;;;;;6.88;100.00;95120.09;5097326;28;20092;-57
2023/02/25 05:11:49;;;;;;;3.13;1.85;;;;;;;6.36;100.00;95133.16;5103314;27;20079;-58
2023/02/25 05:14:18;;;;;;;5.53;2.80;;;;;;;6.64;100.00;95126.00;5104377;27;20076;-54
2023/02/25 05:16:46;;;;;;;6.38;3.95;;;;;;;6.21;100.00;95129.44;5109726;27;20090;-60
2023/02/25 05:19:15;;;;;;;3.22;2.03;;;;;;;6.42;100.00;95133.38;5108233;27;20538;-61
2023/02/25 05:21:44;;;;;;;6.20;2.93;;;;;;;6.38;100.00;95137.25;5109668;27;20543;-56
2023/02/25 05:24:13;;;;;;;5.40;2.35;;;;;;;6.60;100.00;95140.38;5099733;28;20080;-57
2023/02/25 05:26:41;;;;;;;6.93;3.60;;;;;;;6.36;100.00;95141.81;5103566;27;20137;-60
2023/02/25 05:29:11;;;;;;;4.38;2.38;;;;;;;6.72;100.00;95146.19;5111168;27;20079;-58
2023/02/25 05:31:40;;;;;;;4.88;2.45;;;;;;;6.52;100.00;95158.66;5119758;27;20527;-57
2023/02/25 05:34:08;;;;;;;5.85;3.05;;;;;;;6.60;100.00;95154.28;5123278;27;20127;-57
2023/02/25 05:36:36;;;;;;;3.75;2.15;;;;;;;6.72;100.00;95156.69;5118484;27;20471;-56
2023/02/25 05:39:06;;;;;;;6.47;2.45;;;;;;;6.41;100.00;95157.91;5110401;27;20075;-57
2023/02/25 05:41:34;;;;;;;3.60;2.20;;;;;;;6.94;100.00;95156.16;5103771;27;20480;-58
2023/02/25 05:44:02;;;;;;;4.60;3.05;;;;;;;6.44;100.00;95158.59;5118410;27;20082;-56
2023/02/25 05:46:32;;;;;;;5.80;2.72;;;;;;;6.34;100.00;95156.88;5113193;27;20101;-59
2023/02/25 05:49:00;;;;;;;5.68;3.22;;;;;;;6.58;100.00;95150.19;5109888;27;20558;-58
2023/02/25 05:51:29;;;;;;;6.63;3.00;;;;;;;6.98;100.00;95154.88;5110497;27;20551;-57
2023/02/25 05:53:57;;;;;;;5.85;4.05;;;;;;;6.77;100.00;95164.88;5104274;27;20075;-60
2023/02/25 05:56:26;;;;;;;6.72;3.75;;;;;;;6.46;100.00;95170.53;5099248;27;20083;-58
2023/02/25 05:58:58;;;;;;;4.90;2.75;;;;;;;6.58;100.00;95174.59;5101197;27;20083;-56
2023/02/25 06:01:28;;;;;;;6.07;3.03;;;;;;;6.70;100.00;95172.53;5102199;27;20531;-53
2023/02/25 06:03:58;;;;;;;5.73;2.57;;;;;;;6.58;100.00;95171.97;5099081;27;20086;-55
2023/02/25 06:06:28;;;;;;;6.18;3.22;;;;;;;6.68;100.00;95174.50;5100233;27;20082;-54
2023/02/25 06:08:57;;;;;;;3.83;2.45;;;;;;;6.46;100.00;95175.78;5113780;27;20079;-55
2023/02/25 06:11:27;;;;;;;7.38;3.55;;;;;;;6.66;100.00;95177.25;5105969;27;20464;-57
2023/02/25 06:13:57;;;;;;;5.43;2.78;;;;;;;6.83;100.00;95174.75;5105841;27;20468;-54
2023/02/25 06:16:30;;;;;;;6.83;2.80;;;;;;;6.34;100.00;95183.06;5114127;27;20079;-55
2023/02/25 06:19:01;;;;;;;2.85;1.60;;;;;;;6.59;100.00;95181.44;5113370;27;20091;-51
2023/02/25 06:21:30;;;;;;;3.40;2.20;;;;;;;6.65;100.00;95185.28;5112511;27;20079;-51
2023/02/25 06:24:00;;;;;;;3.28;1.70;;;;;;;6.66;100.00;95194.78;5108863;27;20079;-50
2023/02/25 06:26:28;;;;;;;6.85;2.08;;;;;;;6.94;100.00;95182.38;5117955;27;20071;-53
2023/02/25 06:28:57;;;;;;;1.10;0.90;;;;;;;7.24;100.00;95177.63;5118327;27;20593;-50
2023/02/25 06:31:25;;;;;;;6.03;1.73;;;;;;;7.00;100.00;95178.31;5107788;27;20083;-50
2023/02/25 06:33:54;;;;;;;1.63;0.95;;;;;;;7.17;100.00;95182.69;5103176;28;20089;-58
2023/02/25 06:36:24;;;;;;;4.03;1.83;;;;;;;6.70;100.00;95190.06;5108066;28;20079;-54
2023/02/25 06:38:53;;;;;;;2.80;1.25;;;;;;;6.85;100.00;95193.78;5115717;27;20105;-52
2023/02/25 06:41:22;;;;;;;2.80;1.45;;;;;;;6.92;100.00;95186.94;5117534;27;20086;-54
2023/02/25 06:43:51;;;;;;;4.15;1.38;;;;;;;6.67;100.00;95196.41;5120108;27;20085;-55
2023/02/25 06:46:21;;;;;;;3.97;1.67;;;;;;;6.68;100.00;95205.13;5110734;27;20125;-51
2023/02/25 06:48:50;;;;;;;4.03;1.73;;;;;;;7.02;100.00;95195.53;5114823;27;20070;-49
2023/02/25 06:51:18;;;;;;;14.77;1.50;;;;;;;6.88;100.00;95209.16;5111625;27;20082;-45
2023/02/25 06:53:48;;;;;;;4.35;1.85;;;;;;;6.38;100.00;95215.00;5104375;27;20694;-51
2023/02/25 06:56:18;;;;;;;1.80;1.25;;;;;;;6.88;100.00;95211.78;5108992;27;20086;-54
2023/02/25 06:58:47;;;;;;;;;;;;;;;6.70;100.00;95213.63;5109896;27;20067;-45
2023/02/25 07:01:16;;;;;;;3.35;1.25;;;;;;;6.94;100.00;95218.22;5103815;27;19969;-54
2023/02/25 07:03:44;;;;;;;2.17;1.27;;;;;;;7.43;100.00;95211.47;5115575;27;20079;-47
2023/02/25 07:06:14;;;;;;;6.07;2.35;;;;;;;6.89;100.00;95216.91;5118327;27;20082;-50
2023/02/25 07:08:43;;;;;;;6.82;2.45;;;;;;;7.35;100.00;95221.94;5109993;28;20086;-46
2023/02/25 07:11:15;;;;;;;4.60;1.83;;;;;;;6.87;100.00;95226.69;5102777;28;20483;-50
2023/02/25 07:13:43;;;;;;;5.65;2.92;;;;;;;7.31;100.00;95223.22;5104730;27;20080;-52
2023/02/25 07:16:13;;;;;;;5.28;2.33;;;;;;;7.66;100.00;95219.63;5100582;27;20079;-47
2023/02/25 07:18:41;;;;;;;6.47;3.22;;;;;;;7.06;100.00;95222.25;5096483;27;20083;-52
2023/02/25 07:21:11;;;;;;;6.60;1.92;;;;;;;7.56;100.00;95218.94;5108427;27;20098;-51
2023/02/25 07:23:39;;;;;;;5.85;2.30;;;;;;;7.54;100.00;95218.28;5100996;27;20090;-53
2023/02/25 07:26:10;;;;;;;6.32;2.17;;;;;;;7.90;100.00;95210.22;5100464;28;20083;-48
2023/02/25 07:28:40;;;;;;;4.55;2.20;;;;;;;7.66;100.00;95213.56;5103387;27;20076;-52
2023/02/25 07:31:11;;;;;;;5.80;2.25;;;;;;;7.86;100.00;95207.09;5089633;28;20094;-50
2023/02/25 07:33:40;;;;;;;9.77;4.25;;;;;;;8.70;100.00;95210.56;5112801;27;20079;-47
2023/02/25 07:36:08;;;;;;;2.85;1.73;;;;;;;7.79;100.00;95208.72;5117909;27;20083;-46
2023/02/25 07:38:37;;;;;;;4.00;2.05;;;;;;;8.32;100.00;95215.41;5114735;27;20127;-49
2023/02/25 07:41:07;;;;;;;4.75;2.25;;;;;;;8.02;100.00;95216.84;5100240;27;20090;-47
2023/02/25 07:43:35;;;;;;;4.75;2.47;;;;;;;8.13;100.00;95227.03;5107658;27;20554;-44
2023/02/25 07:46:05;;;;;;;4.13;2.10;;;;;;;7.99;100.00;95219.78;5101830;27;20192;-48
2023/02/25 07:48:34;;;;;;;3.20;2.10;;;;;;;8.18;100.00;95222.13;5100848;27;20497;-50
2023/02/25 07:51:05;;;;;;;5.45;2.42;;;;;;;7.85;100.00;95221.22;5115058;27;20080;-50
2023/02/25 07:53:34;;;;;;;6.32;3.35;;;;;;;8.11;100.00;95229.00;5103799;28;20083;-53
2023/02/25 07:56:02;;;;;;;7.95;2.58;;;;;;;8.36;100.00;95221.16;5104175;27;20083;-50
2023/02/25 07:58:30;;;;;;;4.95;2.33;;;;;;;8.22;100.00;95218.19;5109589;27;20087;-53
2023/02/25 08:00:59;;;;;;;5.40;2.55;;;;;;;7.99;100.00;95215.34;5106245;27;20098;-50
2023/02/25 08:03:29;;;;;;;7.15;3.67;;;;;;;8.21;100.00;95210.47;5102275;27;20087;-51
2023/02/25 08:05:59;;;;;;;6.97;3.53;;;;;;;8.35;100.00;95209.84;5101655;28;20079;-45
2023/02/25 08:08:27;;;;;;;4.65;2.45;;;;;;;8.22;100.00;95204.22;5100445;27;20472;-45
2023/02/25 08:10:55;;;;;;;6.20;3.40;;;;;;;8.07;100.00;95199.59;5109924;27;20078;-50
2023/02/25 08:13:23;;;;;;;3.38;2.03;;;;;;;8.52;100.00;95203.66;5101282;27;20484;-48
2023/02/25 08:15:52;;;;;;;5.32;2.95;;;;;;;8.27;100.00;95201.97;5111059;27;20540;-53
2023/02/25 08:18:20;;;;;;;4.25;2.58;;;;;;;8.58;100.00;95196.13;5103116;27;20087;-51
2023/02/25 08:20:50;;;;;;;7.35;3.53;;;;;;;8.08;100.00;95203.06;5121901;27;20476;-52
2023/02/25 08:23:18;;;;;;;4.82;2.53;;;;;;;8.42;100.00;95200.38;5116693;27;20087;-49
2023/02/25 08:25:47;;;;;;;3.97;2.50;;;;;;;8.28;100.00;95203.59;5108826;27;20083;-53
2023/02/25 08:28:15;;;;;;;5.70;2.58;;;;;;;8.49;100.00;95198.72;5102213;27;20079;-49
2023/02/25 08:30:43;;;;;;;5.35;2.47;;;;;;;8.87;100.00;95204.31;5111477;27;20083;-50
2023/02/25 08:33:12;;;;;;;4.45;2.05;;;;;;;8.50;100.00;95197.75;5108564;27;20075;-47
2023/02/25 08:35:40;;;;;;;5.30;3.45;;;;;;;8.15;100.00;95188.31;5108877;27;20084;-50
2023/02/25 08:38:11;;;;;;;5.47;2.95;;;;;;;8.63;100.00;95196.44;5100485;28;20086;-47
2023/02/25 08:40:40;;;;;;;4.10;2.42;;;;;;;8.92;100.00;95194.16;5100276;27;20079;-49
2023/02/25 08:43:09;;;;;;;5.22;2.25;;;;;;;8.78;100.00;95203.53;5110622;27;20083;-46
2023/02/25 08:45:38;;;;;;;4.72;2.63;;;;;;;8.62;100.00;95205.31;5097914;27;20086;-47
2023/02/25 08:48:07;;;;;;;3.63;1.83;;;;;;;8.98;100.00;95208.41;5113960;27;20541;-47
2023/02/25 08:50:35;;;;;;;3.90;1.85;;;;;;;9.20;100.00;95205.13;5106430;27;20087;-49
2023/02/25 08:53:03;;;;;;;7.63;1.90;;;;;;;8.67;100.00;95210.91;5106463;27;20566;-48
2023/02/25 08:55:35;;;;;;;4.40;2.22;;;;;;;8.62;100.00;95207.94;5105921;28;20074;-55
2023/02/25 08:58:03;;;;;;;6.30;2.58;;;;;;;7.97;100.00;95221.72;5095852;28;20098;-55
2023/02/25 09:00:31;;;;;;;4.32;1.55;;;;;;;8.23;100.00;95224.28;5107673;28;20092;-52
2023/02/25 09:03:00;;;;;;;4.13;2.08;;;;;;;8.75;100.00;95221.44;5109757;27;20670;-49
2023/02/25 09:05:28;;;;;;;4.50;2.35;;;;;;;8.27;100.00;95223.78;5104129;28;20101;-55
2023/02/25 09:07:57;;;;;;;4.10;2.15;;;;;;;8.24;100.00;95220.66;5099280;27;20110;-53
2023/02/25 09:10:26;;;;;;;6.57;1.73;;;;;;;8.71;100.00;95222.75;5103377;27;20098;-48
2023/02/25 09:12:55;;;;;;;4.60;1.70;;;;;;;8.48;100.00;95219.91;5102811;28;20079;-48
2023/02/25 09:15:23;;;;;;;2.67;1.63;;;;;;;8.92;100.00;95209.09;5116827;27;20098;-46
2023/02/25 09:17:52;;;;;;;3.25;1.48;;;;;;;8.56;100.00;95217.28;5100521;28;20078;-51
2023/02/25 09:20:20;;;;;;;4.60;1.65;;;;;;;8.59;100.00;95224.03;5118980;27;20090;-46
2023/02/25 09:22:48;;;;;;;6.25;1.88;;;;;;;8.77;100.00;95215.03;5103574;28;20083;-49
2023/02/25 09:25:17;;;;;;;2.78;1.27;;;;;;;8.32;88.17;95223.28;5112783;28;20077;-47
2023/02/25 09:27:45;;;;;;;5.80;2.13;;;;;;;8.62;95.81;95210.56;5109927;28;20567;-55
2023/02/25 09:30:15;;;;;;;3.45;1.20;;;;;;;8.83;96.54;95210.91;5106505;27;20545;-50
2023/02/25 09:32:44;;;;;;;3.25;1.50;;;;;;;8.34;84.04;95205.59;5109685;28;20075;-53
2023/02/25 09:35:13;;;;;;;3.33;1.00;;;;;;;8.44;94.53;95208.09;5105290;28;20076;-46
2023/02/25 09:37:41;;;;;;;3.35;0.80;;;;;;;8.59;89.27;95214.34;5107500;28;20075;-50
2023/02/25 09:40:15;;;;;;;2.95;1.50;;;;;;;8.87;81.89;95211.41;5092407;28;20523;-45
2023/02/25 09:42:52;;;;;;;1.80;1.30;;;;;;;9.04;84.70;95219.09;5106936;28;20079;-54
2023/02/25 09:45:23;;;;;;;1.98;0.90;;;;;;;9.10;77.71;95209.75;5098058;28;20079;-53
2023/02/25 09:47:57;;;;;;;2.50;1.13;;;;;;;9.23;80.52;95210.06;5103236;28;20087;-44
2023/02/25 09:50:28;;;;;;;2.92;1.25;;;;;;;8.78;72.24;95208.78;5097215;28;20091;-50
2023/02/25 09:53:02;;;;;;;2.90;1.05;;;;;;;8.76;73.63;95191.53;5106079;28;20075;-51
2023/02/25 09:55:32;;;;;;;5.97;1.45;;;;;;;9.20;80.59;95201.69;5099670;28;20127;-52
2023/02/25 09:58:07;;;;;;;1.77;1.00;;;;;;;9.84;85.62;95196.38;5108555;27;20083;-50
2023/02/25 10:00:41;;;;;;;3.97;1.40;;;;;;;8.72;80.23;95204.16;5104424;27;20087;-50
2023/02/25 10:03:18;;;;;;;2.88;1.05;;;;;;;9.22;82.16;95192.63;5107452;27;20074;-51
2023/02/25 10:05:50;;;;;;;2.45;1.15;;;;;;;9.42;88.10;95190.44;5104323;28;20072;-50
2023/02/25 10:08:22;;;;;;;1.35;1.00;;;;;;;9.36;100.00;95185.88;5103531;27;20077;-51
2023/02/25 10:10:57;;;;;;;2.97;0.98;;;;;;;8.78;89.52;95179.06;5104019;27;20094;-52
2023/02/25 10:13:32;;;;;;;3.78;1.33;;;;;;;9.16;89.74;95193.31;5114680;27;20085;-50
2023/02/25 10:16:11;;;;;;;6.03;1.00;;;;;;;9.17;75.50;95184.41;5099328;28;20075;-49
2023/02/25 10:18:53;;;;;;;0.85;0.70;;;;;;;9.50;77.35;95186.97;5100244;27;20083;-48
2023/02/25 10:21:32;;;;;;;5.60;1.13;;;;;;;8.85;74.30;95187.09;5114335;27;20087;-53
2023/02/25 10:24:12;;;;;;;3.08;1.05;;;;;;;9.27;78.89;95187.69;5115684;27;20067;-50
2023/02/25 10:26:43;;;;;;;2.97;0.80;;;;;;;9.47;70.07;95174.97;5103614;27;20125;-49
2023/02/25 10:29:17;;;;;;;2.75;1.13;;;;;;;9.27;73.63;95187.69;5105615;27;20087;-51
2023/02/25 10:31:46;;;;;;;0.80;0.68;;;;;;;9.52;76.72;95182.34;5104233;27;20071;-49
2023/02/25 10:34:21;;;;;;;3.35;0.88;;;;;;;9.31;78.74;95180.28;5111322;27;20090;-50
2023/02/25 10:36:54;;;;;;;2.60;1.20;;;;;;;9.57;73.89;95177.41;5105987;27;20546;-49
2023/02/25 10:39:23;;;;;;;4.05;1.23;;;;;;;9.27;65.81;95185.06;5110198;27;20082;-50
2023/02/25 10:41:51;;;;;;;2.20;0.98;;;;;;;8.93;66.76;95194.97;5105146;27;20493;-50
2023/02/25 10:44:20;;;;;;;5.45;1.05;;;;;;;8.91;67.19;95189.88;5105733;27;20087;-51
2023/02/25 10:46:54;;;;;;;1.80;0.88;;;;;;;8.89;60.59;95188.41;5103965;27;20071;-48
2023/02/25 10:49:25;;;;;;;2.88;1.00;;;;;;;9.06;68.57;95183.94;5105481;28;20087;-45
2023/02/25 10:52:01;;;;;;;;;;;;;;;8.90;63.49;95182.16;5110320;27;20086;-51
2023/02/25 10:54:32;;;;;;;4.43;1.45;;;;;;;9.14;69.76;95179.50;5109671;27;20026;-47
2023/02/25 10:57:01;;;;;;;2.03;1.10;;;;;;;8.81;64.55;95191.88;5114980;27;20079;-49
2023/02/25 10:59:32;;;;;;;4.05;1.40;;;;;;;9.49;70.02;95162.44;5106398;27;20494;-55
2023/02/25 11:02:02;;;;;;;1.83;1.00;;;;;;;10.00;78.07;95156.81;5106615;27;20075;-48
2023/02/25 11:04:35;;;;;;;1.60;1.17;;;;;;;9.67;64.84;95171.94;5106109;27;20102;-50
2023/02/25 11:07:24;;;;;;;2.58;0.98;;;;;;;9.04;59.56;95156.00;5107412;27;20568;-49
2023/02/25 11:10:08;;;;;;;1.92;1.10;;;;;;;8.98;63.73;95158.47;5111396;27;20067;-48
2023/02/25 11:12:41;;;;;;;1.80;0.88;;;;;;;9.28;61.94;95176.16;5105389;27;20090;-50
2023/02/25 11:15:20;;;;;;;2.13;0.90;;;;;;;9.31;58.99;95166.31;5105885;27;20075;-51
2023/02/25 11:18:04;;;;;;;1.50;0.60;;;;;;;9.72;55.86;95157.28;5116469;27;20071;-49
2023/02/25 11:20:33;;;;;;;3.53;1.10;;;;;;;10.33;55.11;95146.94;5107775;27;20089;-53
2023/02/25 11:23:01;;;;;;;2.72;0.80;;;;;;;10.36;56.22;95151.03;5110652;27;20082;-50
2023/02/25 11:25:36;;;;;;;5.22;1.02;;;;;;;10.85;52.64;95153.28;5099254;27;20085;-45
2023/02/25 11:28:06;;;;;;;3.25;0.85;;;;;;;10.70;54.62;95145.31;5100324;27;20091;-52
2023/02/25 11:30:37;;;;;;;2.05;1.00;;;;;;;10.56;53.73;95140.81;5104770;27;20079;-55
2023/02/25 11:33:19;;;;;;;2.78;0.90;;;;;;;10.13;53.77;95150.97;5102018;27;20765;-48
2023/02/25 11:35:54;;;;;;;1.55;0.68;;;;;;;10.45;54.47;95134.97;5107166;27;20072;-51
2023/02/25 11:38:26;;;;;;;0.93;0.70;;;;;;;10.34;59.06;95145.94;5095773;27;20149;-50
2023/02/25 11:40:55;;;;;;;3.55;1.10;;;;;;;9.97;58.16;95155.34;5101795;27;20094;-53
2023/02/25 11:43:24;;;;;;;2.20;0.80;;;;;;;9.68;57.15;95144.63;5099959;27;20083;-56
2023/02/25 11:45:55;;;;;;;2.40;0.95;;;;;;;10.45;55.61;95126.25;5098408;27;20081;-48
2023/02/25 11:48:28;;;;;;;3.65;0.90;;;;;;;10.47;53.63;95129.53;5096346;27;20059;-51
2023/02/25 11:51:01;;;;;;;2.85;0.70;;;;;;;10.32;53.54;95123.38;5098052;27;20083;-49
2023/02/25 11:53:38;;;;;;;5.00;1.13;;;;;;;10.72;55.32;95121.44;5102081;27;20078;-52